Time;durP1;ratioP1;P1;durP2;ratioP2;P2;SDS_P1;SDS_P2;PMS_P1;PMS_P2;Temp;Humidity;BMP_temperature;BMP_pressure;BME280_temperature;BME280_humidity;BME280_pressure;Samples;Min_cycle;Max_cycle;Signal;HPM_P1;HPM_P2
2024/04/01 00:02:45;;;;;;;0.93;0.73;;;13.30;84.00;;;;;;10268746;28;20271;-66
2024/04/01 00:07:51;;;;;;;1.63;1.08;;;13.30;83.70;;;;;;10266841;28;20229;-64
2024/04/01 00:12:57;;;;;;;0.90;0.90;;;13.30;83.60;;;;;;10266654;28;20224;-64
2024/04/01 00:18:00;;;;;;;2.53;1.30;;;13.30;84.10;;;;;;10267500;28;21152;-63
2024/04/01 00:23:02;;;;;;;1.63;1.25;;;13.30;84.30;;;;;;10267845;28;20797;-65
2024/04/01 00:28:07;;;;;;;1.38;0.80;;;13.20;84.00;;;;;;10266963;28;21552;-65
2024/04/01 00:33:09;;;;;;;1.00;0.70;;;13.20;84.00;;;;;;10267248;28;20240;-67
2024/04/01 00:38:12;;;;;;;1.42;0.80;;;13.20;83.70;;;;;;10266977;28;21291;-67
2024/04/01 00:43:16;;;;;;;1.88;0.63;;;13.20;83.60;;;;;;10265746;28;20279;-67
2024/04/01 00:48:18;;;;;;;1.45;0.70;;;13.20;83.50;;;;;;10271974;28;20283;-67
2024/04/01 00:53:21;;;;;;;1.55;0.80;;;13.20;83.80;;;;;;10274653;28;20305;-67
2024/04/01 00:58:26;;;;;;;1.98;0.75;;;13.20;83.90;;;;;;10274749;28;20942;-66
2024/04/01 01:03:29;;;;;;;4.20;1.00;;;13.20;83.70;;;;;;10276042;28;20279;-67
2024/04/01 01:08:32;;;;;;;1.88;0.68;;;13.20;83.80;;;;;;10273199;28;21254;-65
2024/04/01 01:13:36;;;;;;;0.90;0.80;;;13.20;83.90;;;;;;10274516;28;20229;-65
2024/04/01 01:18:38;;;;;;;1.30;0.60;;;13.20;83.70;;;;;;10276718;28;20221;-67
2024/04/01 01:23:42;;;;;;;2.53;0.70;;;13.20;83.90;;;;;;10277323;28;20240;-62
2024/04/01 01:28:45;;;;;;;1.83;0.80;;;13.10;83.70;;;;;;10273610;28;20271;-64
2024/04/01 01:33:48;;;;;;;0.85;0.60;;;13.20;83.90;;;;;;10271305;28;21489;-63
2024/04/01 01:38:52;;;;;;;1.98;0.80;;;13.20;84.20;;;;;;10272726;28;20240;-64
2024/04/01 01:43:55;;;;;;;1.25;0.77;;;13.10;83.90;;;;;;10269673;28;20606;-64
2024/04/01 01:48:57;;;;;;;2.63;0.90;;;13.10;84.10;;;;;;10271525;28;20317;-65
2024/04/01 01:54:01;;;;;;;1.23;0.75;;;13.10;84.10;;;;;;10271010;28;20236;-64
2024/04/01 01:59:04;;;;;;;2.22;0.88;;;13.10;84.30;;;;;;10271025;28;20209;-64
2024/04/01 02:04:06;;;;;;;2.03;0.80;;;13.10;84.20;;;;;;10269410;28;20641;-65
2024/04/01 02:09:11;;;;;;;1.08;0.70;;;13.10;84.70;;;;;;10270933;28;20319;-67
2024/04/01 02:14:13;;;;;;;1.48;0.90;;;13.10;84.20;;;;;;10269400;28;20236;-66
2024/04/01 02:19:16;;;;;;;0.82;0.60;;;13.10;84.30;;;;;;10269886;28;20274;-66
2024/04/01 02:24:20;;;;;;;1.48;0.70;;;13.10;84.70;;;;;;10268886;28;20271;-65
2024/04/01 02:29:23;;;;;;;0.82;0.65;;;13.10;84.90;;;;;;10268068;28;20229;-66
2024/04/01 02:34:26;;;;;;;1.08;0.50;;;13.10;84.80;;;;;;10267842;28;20229;-64
2024/04/01 02:39:30;;;;;;;1.25;0.68;;;13.00;84.80;;;;;;10268700;28;20755;-67
2024/04/01 02:44:32;;;;;;;0.98;0.50;;;13.00;85.00;;;;;;10270811;28;20228;-66
2024/04/01 02:49:35;;;;;;;1.25;0.70;;;13.00;84.80;;;;;;10274406;28;20429;-64
2024/04/01 02:54:39;;;;;;;2.35;0.88;;;12.90;84.70;;;;;;10337941;23;20391;-61
2024/04/01 02:59:42;;;;;;;2.17;0.73;;;12.90;85.20;;;;;;10346511;28;20245;-62
2024/04/01 03:04:45;;;;;;;1.55;0.80;;;12.90;85.40;;;;;;10317752;28;20224;-61
2024/04/01 03:09:49;;;;;;;0.65;0.40;;;12.80;85.40;;;;;;10307370;28;20254;-60
2024/04/01 03:14:53;;;;;;;1.45;0.75;;;12.80;85.20;;;;;;10306974;28;20254;-60
2024/04/01 03:19:56;;;;;;;1.17;0.70;;;12.70;85.60;;;;;;10305645;28;21625;-61
2024/04/01 03:25:00;;;;;;;1.27;0.85;;;12.70;86.00;;;;;;10304613;28;20293;-62
2024/04/01 03:30:03;;;;;;;1.38;0.77;;;12.70;85.80;;;;;;10305797;28;20228;-61
2024/04/01 03:35:07;;;;;;;1.00;0.82;;;12.70;85.90;;;;;;10304336;28;20233;-61
2024/04/01 03:40:12;;;;;;;1.10;0.68;;;12.60;85.80;;;;;;10305581;28;20944;-60
2024/04/01 03:45:15;;;;;;;1.98;1.00;;;12.60;86.20;;;;;;10306850;28;20240;-61
2024/04/01 03:50:18;;;;;;;1.45;0.88;;;12.60;85.80;;;;;;10305573;28;20228;-63
2024/04/01 03:55:22;;;;;;;0.77;0.70;;;12.60;86.50;;;;;;10304814;28;20240;-61
2024/04/01 04:00:24;;;;;;;1.35;0.77;;;12.50;86.00;;;;;;10309237;28;20262;-60
2024/04/01 04:05:27;;;;;;;1.50;0.60;;;12.50;86.40;;;;;;10311551;28;20293;-61
2024/04/01 04:10:31;;;;;;;2.45;0.70;;;12.50;86.20;;;;;;10309344;28;20220;-60
2024/04/01 04:15:34;;;;;;;1.92;0.90;;;12.50;86.20;;;;;;10310504;28;20259;-61
2024/04/01 04:20:36;;;;;;;1.30;0.93;;;12.40;86.20;;;;;;10311640;28;20212;-62
2024/04/01 04:25:40;;;;;;;1.45;0.80;;;12.40;86.00;;;;;;10317683;28;20240;-62
2024/04/01 04:30:43;;;;;;;0.93;0.75;;;12.50;86.20;;;;;;10319902;28;20298;-61
2024/04/01 04:35:47;;;;;;;1.10;1.00;;;12.50;86.40;;;;;;10319761;28;20290;-62
2024/04/01 04:40:51;;;;;;;3.15;0.88;;;12.40;86.30;;;;;;10320666;28;21042;-60
2024/04/01 04:45:53;;;;;;;3.17;0.90;;;12.40;86.40;;;;;;10319584;28;20306;-61
2024/04/01 04:50:57;;;;;;;1.30;0.90;;;12.40;86.40;;;;;;10320224;28;20228;-62
2024/04/01 04:56:01;;;;;;;1.83;1.35;;;12.50;86.50;;;;;;10314064;28;20232;-62
2024/04/01 05:01:06;;;;;;;1.42;0.90;;;12.50;86.60;;;;;;10315722;28;20679;-62
2024/04/01 05:06:08;;;;;;;1.85;1.10;;;12.40;86.50;;;;;;10317019;28;20259;-61
2024/04/01 05:11:13;;;;;;;2.33;0.90;;;12.40;86.90;;;;;;10316965;28;21192;-62
2024/04/01 05:16:17;;;;;;;2.15;1.23;;;12.40;87.30;;;;;;10313777;28;20309;-60
2024/04/01 05:21:19;;;;;;;1.67;1.17;;;12.40;87.50;;;;;;10315657;28;20209;-61
2024/04/01 05:26:23;;;;;;;1.88;1.15;;;12.30;87.90;;;;;;10315880;28;20208;-61
2024/04/01 05:31:26;;;;;;;1.73;1.10;;;12.30;89.40;;;;;;10316640;28;21567;-62
2024/04/01 05:36:30;;;;;;;5.15;1.27;;;12.30;89.00;;;;;;10313199;28;20274;-60
2024/04/01 05:41:34;;;;;;;2.45;1.38;;;12.30;89.20;;;;;;10312280;28;21378;-59
2024/04/01 05:46:37;;;;;;;2.08;1.27;;;12.30;89.70;;;;;;10310102;28;20278;-60
2024/04/01 05:51:40;;;;;;;1.98;1.27;;;12.30;89.60;;;;;;10312971;28;20317;-62
2024/04/01 05:56:44;;;;;;;1.73;1.38;;;12.30;90.00;;;;;;10311836;28;20289;-60
2024/04/01 06:01:46;;;;;;;1.73;1.35;;;12.30;90.40;;;;;;10310301;28;20289;-61
2024/04/01 06:06:49;;;;;;;2.05;1.25;;;12.30;90.10;;;;;;10311199;28;20302;-63
2024/04/01 06:11:53;;;;;;;1.50;1.27;;;12.30;90.10;;;;;;10307972;28;20760;-59
2024/04/01 06:16:55;;;;;;;2.28;1.45;;;12.30;90.30;;;;;;10308811;28;20246;-60
2024/04/01 06:21:58;;;;;;;4.32;1.48;;;12.30;90.10;;;;;;10310251;28;20232;-60
2024/04/01 06:27:02;;;;;;;3.63;1.52;;;12.30;90.40;;;;;;10309509;28;20265;-62
2024/04/01 06:32:05;;;;;;;2.97;1.30;;;12.30;90.50;;;;;;10309258;28;20240;-59
2024/04/01 06:37:08;;;;;;;2.40;1.27;;;12.30;90.50;;;;;;10309418;28;20234;-60
2024/04/01 06:42:12;;;;;;;2.72;1.30;;;12.40;90.90;;;;;;10311586;28;20224;-60
2024/04/01 06:47:14;;;;;;;3.45;1.75;;;12.40;90.60;;;;;;10309970;28;20212;-60
2024/04/01 06:52:17;;;;;;;3.83;2.50;;;12.40;90.90;;;;;;10307554;28;21649;-60
2024/04/01 06:57:21;;;;;;;3.72;2.00;;;12.50;92.30;;;;;;10301901;28;20798;-62
2024/04/01 07:02:24;;;;;;;2.60;1.60;;;12.50;91.50;;;;;;10309789;28;20228;-62
2024/04/01 07:07:26;;;;;;;3.72;1.25;;;12.50;91.10;;;;;;10304050;28;20269;-62
2024/04/01 07:12:31;;;;;;;3.00;1.65;;;12.50;91.00;;;;;;10300657;28;20310;-62
2024/04/01 07:17:33;;;;;;;4.10;1.70;;;12.50;91.40;;;;;;10299434;28;20299;-61
2024/04/01 07:22:36;;;;;;;5.18;2.03;;;12.50;91.20;;;;;;10300535;28;20224;-62
2024/04/01 07:27:40;;;;;;;2.92;2.08;;;12.50;91.40;;;;;;10299150;28;20596;-62
2024/04/01 07:32:42;;;;;;;6.05;3.40;;;12.50;91.80;;;;;;10298891;28;20243;-63
2024/04/01 07:37:45;;;;;;;5.18;4.65;;;12.50;91.70;;;;;;10299002;28;20981;-63
2024/04/01 07:42:49;;;;;;;6.43;3.75;;;12.60;92.20;;;;;;10298669;28;20228;-62
2024/04/01 07:47:52;;;;;;;4.38;3.10;;;12.50;92.20;;;;;;10300784;28;20208;-64
2024/04/01 07:52:54;;;;;;;4.28;2.58;;;12.60;92.20;;;;;;10300436;28;21439;-61
2024/04/01 07:57:58;;;;;;;4.13;2.20;;;12.70;92.10;;;;;;10297927;28;20204;-63
2024/04/01 08:03:01;;;;;;;2.90;2.47;;;12.70;92.30;;;;;;10299561;28;20227;-65
2024/04/01 08:08:04;;;;;;;3.15;2.03;;;12.70;92.20;;;;;;10298747;28;20258;-63
2024/04/01 08:13:07;;;;;;;3.80;2.13;;;12.70;92.40;;;;;;10296415;28;20236;-62
2024/04/01 08:18:10;;;;;;;3.33;1.75;;;12.70;92.20;;;;;;10300171;28;20791;-62
2024/04/01 08:23:13;;;;;;;2.00;1.80;;;12.70;92.50;;;;;;10297135;28;20698;-62
2024/04/01 08:28:18;;;;;;;2.63;1.65;;;12.60;92.50;;;;;;10297433;28;20265;-65
2024/04/01 08:33:20;;;;;;;2.92;2.20;;;12.60;93.00;;;;;;10298954;28;20236;-62
2024/04/01 08:38:23;;;;;;;2.53;2.00;;;12.50;92.80;;;;;;10298074;28;20274;-62
2024/04/01 08:43:35;;;;;;;3.47;1.70;;;12.50;92.80;;;;;;10297465;28;20286;-64
2024/04/01 08:48:42;;;;;;;3.88;2.00;;;12.40;92.90;;;;;;10295808;28;20245;-63
2024/04/01 08:53:54;;;;;;;2.47;1.83;;;12.30;93.00;;;;;;10330020;22;20239;-59
2024/04/01 08:58:58;;;;;;;4.63;2.75;;;12.30;92.90;;;;;;10408469;28;20353;-61
2024/04/01 09:04:01;;;;;;;2.67;2.10;;;12.30;93.60;;;;;;10411994;28;20386;-61
2024/04/01 09:09:04;;;;;;;2.88;2.08;;;12.30;93.60;;;;;;10385828;28;20286;-60
2024/04/01 09:14:09;;;;;;;2.92;2.50;;;12.20;93.80;;;;;;10383490;28;20393;-62
2024/04/01 09:19:12;;;;;;;5.60;3.97;;;12.20;93.70;;;;;;10383242;28;20231;-62
2024/04/01 09:24:14;;;;;;;5.85;4.93;;;12.20;93.60;;;;;;10401300;28;20255;-61
2024/04/01 09:29:18;;;;;;;7.40;6.70;;;12.20;93.80;;;;;;10382236;28;20236;-60
2024/04/01 09:34:22;;;;;;;8.05;7.25;;;12.20;93.70;;;;;;10378348;28;20318;-61
2024/04/01 09:39:24;;;;;;;9.20;8.20;;;12.20;93.60;;;;;;10379264;28;20686;-62
2024/04/01 09:44:32;;;;;;;11.40;10.25;;;12.20;94.10;;;;;;10379511;28;20264;-62
2024/04/01 09:49:36;;;;;;;10.93;9.82;;;12.20;94.00;;;;;;10381072;28;20338;-61
2024/04/01 09:54:39;;;;;;;12.48;11.27;;;12.20;94.20;;;;;;10386636;28;20311;-59
2024/04/01 10:00:09;;;;;;;12.88;11.60;;;12.10;94.30;;;;;;10396157;28;20280;-60
2024/04/01 10:05:36;;;;;;;14.38;13.02;;;12.20;94.50;;;;;;10392436;28;20675;-63
2024/04/01 10:11:17;;;;;;;12.43;11.23;;;12.10;94.40;;;;;;10383334;28;20730;-62
2024/04/01 10:17:00;;;;;;;11.43;10.43;;;12.10;94.40;;;;;;10384273;28;20886;-62
2024/04/01 10:22:37;;;;;;;11.80;10.63;;;12.10;94.60;;;;;;10381345;28;20286;-62
2024/04/01 10:28:08;;;;;;;13.45;12.25;;;12.10;94.50;;;;;;10380364;28;20309;-60
2024/04/01 10:33:44;;;;;;;16.13;14.65;;;12.10;94.70;;;;;;10377994;28;20438;-61
2024/04/01 10:39:29;;;;;;;19.27;17.48;;;12.00;94.70;;;;;;10386420;28;20244;-66
2024/04/01 10:45:09;;;;;;;17.98;16.27;;;12.00;94.60;;;;;;10305617;28;20254;-67
2024/04/01 10:50:29;;;;;;;13.82;12.63;;;12.00;94.50;;;;;;10302949;28;20670;-68
2024/04/01 10:56:02;;;;;;;15.02;13.70;;;12.10;94.50;;;;;;10307317;28;20240;-67
2024/04/01 11:01:32;;;;;;;13.88;12.55;;;12.10;94.40;;;;;;10310880;28;22062;-66
2024/04/01 11:06:47;;;;;;;12.70;11.60;;;12.10;94.60;;;;;;10310143;28;20231;-66
2024/04/01 11:11:59;;;;;;;13.95;12.55;;;12.10;94.90;;;;;;10307419;28;20313;-65
2024/04/01 11:17:05;;;;;;;15.52;14.13;;;12.20;94.70;;;;;;10303600;28;20257;-66
2024/04/01 11:22:16;;;;;;;18.95;17.00;;;12.30;94.60;;;;;;10299602;28;20294;-68
2024/04/01 11:28:02;;;;;;;18.65;16.80;;;12.40;94.70;;;;;;10292908;28;20251;-67
2024/04/01 11:33:07;;;;;;;19.88;17.83;;;12.30;94.90;;;;;;10289087;28;20232;-66
2024/04/01 11:38:34;;;;;;;20.83;18.73;;;12.30;94.50;;;;;;10294404;28;20850;-67
2024/04/01 11:43:39;;;;;;;20.05;17.95;;;12.40;94.70;;;;;;10292685;28;20212;-67
2024/04/01 11:48:42;;;;;;;15.68;13.93;;;12.40;94.70;;;;;;10292733;28;20212;-68
2024/04/01 11:53:46;;;;;;;17.02;15.23;;;12.40;94.80;;;;;;10291497;28;20243;-68
2024/04/01 11:58:49;;;;;;;16.67;14.93;;;12.30;94.60;;;;;;10290623;28;20270;-67
2024/04/01 12:03:52;;;;;;;17.17;15.48;;;12.40;94.70;;;;;;10291409;28;20236;-66
2024/04/01 12:08:57;;;;;;;17.13;15.32;;;12.40;94.40;;;;;;10292541;28;20289;-68
2024/04/01 12:14:01;;;;;;;18.80;17.00;;;12.50;94.80;;;;;;10292305;28;20228;-68
2024/04/01 12:19:06;;;;;;;20.27;18.15;;;12.50;94.50;;;;;;10292610;28;20277;-66
2024/04/01 12:24:11;;;;;;;18.08;16.38;;;12.50;94.40;;;;;;10291419;28;20228;-68
2024/04/01 12:29:15;;;;;;;15.98;14.18;;;12.40;94.50;;;;;;10292788;28;20208;-67
2024/04/01 12:34:18;;;;;;;14.32;12.95;;;12.50;94.50;;;;;;10290478;28;20240;-67
2024/04/01 12:39:22;;;;;;;12.80;11.70;;;12.50;94.20;;;;;;10290289;28;20208;-68
2024/04/01 12:44:25;;;;;;;14.45;13.13;;;12.70;94.10;;;;;;10298256;28;20313;-66
2024/04/01 12:49:29;;;;;;;12.10;11.10;;;12.80;94.10;;;;;;10299819;28;20683;-66
2024/04/01 12:54:49;;;;;;;11.55;10.45;;;12.90;93.90;;;;;;10303619;28;20235;-65
2024/04/01 13:00:03;;;;;;;7.57;5.95;;;13.00;93.50;;;;;;10301558;28;20812;-65
2024/04/01 13:05:15;;;;;;;7.85;4.78;;;12.90;92.80;;;;;;10301459;28;20220;-66
2024/04/01 13:10:26;;;;;;;5.35;4.53;;;12.80;92.80;;;;;;10305897;28;20254;-64
2024/04/01 13:15:37;;;;;;;11.90;7.43;;;12.80;92.80;;;;;;10305471;28;20259;-68
2024/04/01 13:20:50;;;;;;;8.02;4.47;;;12.80;92.70;;;;;;10306997;28;20224;-68
2024/04/01 13:25:59;;;;;;;11.15;7.82;;;12.80;92.40;;;;;;10300849;28;20581;-67
2024/04/01 13:31:20;;;;;;;4.07;3.67;;;12.80;92.50;;;;;;10305276;28;20216;-69
2024/04/01 13:36:29;;;;;;;6.55;3.50;;;12.80;92.50;;;;;;10302302;28;20289;-66
2024/04/01 13:41:44;;;;;;;2.80;2.53;;;12.80;92.20;;;;;;10303071;28;21248;-64
2024/04/01 13:47:01;;;;;;;4.45;2.03;;;12.80;92.20;;;;;;10302000;28;20224;-65
2024/04/01 13:52:16;;;;;;;2.88;2.38;;;12.70;91.50;;;;;;10300968;28;20231;-66
2024/04/01 13:57:37;;;;;;;6.28;2.97;;;12.70;92.00;;;;;;10297610;28;20236;-66
2024/04/01 14:02:49;;;;;;;3.45;2.20;;;12.80;92.00;;;;;;10305448;28;20221;-65
2024/04/01 14:07:59;;;;;;;4.25;2.67;;;12.80;91.20;;;;;;10302011;28;21682;-67
2024/04/01 14:13:21;;;;;;;11.20;7.93;;;12.80;91.10;;;;;;10306025;28;20310;-68
2024/04/01 14:18:38;;;;;;;6.00;4.20;;;13.00;91.60;;;;;;10302652;28;20273;-68
2024/04/01 14:23:41;;;;;;;8.50;5.50;;;13.10;91.60;;;;;;10305230;28;20212;-68
2024/04/01 14:28:45;;;;;;;4.40;2.22;;;13.30;91.60;;;;;;10310498;28;20212;-68
2024/04/01 14:33:48;;;;;;;5.18;1.80;;;13.40;91.20;;;;;;10324449;28;20286;-64
2024/04/01 14:38:51;;;;;;;4.05;1.50;;;13.60;91.00;;;;;;10325702;28;20212;-63
2024/04/01 14:43:56;;;;;;;2.42;1.55;;;13.70;89.90;;;;;;10318869;28;20228;-67
2024/04/01 14:48:58;;;;;;;4.15;1.55;;;13.70;88.40;;;;;;10320274;28;20265;-66
2024/04/01 14:59:12;;;;;;;3.30;1.60;;;13.80;88.20;;;;;;10192775;28;20226;-69
2024/04/01 15:04:15;;;;;;;3.72;1.75;;;13.80;88.20;;;;;;10196711;28;20277;-67
2024/04/01 15:09:19;;;;;;;2.42;1.58;;;13.80;88.20;;;;;;10197825;28;20241;-69
2024/04/01 15:14:24;;;;;;;3.38;1.35;;;13.80;88.10;;;;;;10196345;28;21356;-68
2024/04/01 15:19:28;;;;;;;2.30;1.40;;;13.80;87.90;;;;;;10197532;28;20218;-67
2024/04/01 15:24:30;;;;;;;1.63;1.35;;;13.80;87.70;;;;;;10196330;28;20222;-69
2024/04/01 15:29:38;;;;;;;4.82;1.95;;;13.80;88.60;;;;;;10197404;28;20207;-69
2024/04/01 15:34:41;;;;;;;4.75;1.40;;;13.80;87.90;;;;;;10195889;28;20739;-70
2024/04/01 15:39:44;;;;;;;2.50;1.60;;;13.90;87.90;;;;;;10189377;28;20222;-66
2024/04/01 15:44:49;;;;;;;2.15;1.50;;;14.00;88.50;;;;;;10196329;28;21199;-67
2024/04/01 15:49:52;;;;;;;2.58;1.33;;;14.20;88.30;;;;;;10193793;28;20214;-68
2024/04/01 15:54:56;;;;;;;3.05;1.35;;;14.30;87.50;;;;;;10193324;28;20226;-67
2024/04/01 16:00:02;;;;;;;2.00;1.25;;;14.40;87.10;;;;;;10193799;28;20218;-68
2024/04/01 16:05:05;;;;;;;2.35;1.10;;;14.30;84.90;;;;;;10195187;28;20858;-70
2024/04/01 16:10:08;;;;;;;1.20;1.10;;;14.30;86.00;;;;;;10194428;28;20206;-68
2024/04/01 16:15:13;;;;;;;3.90;1.65;;;14.40;87.20;;;;;;10195367;28;20238;-68
2024/04/01 16:20:18;;;;;;;2.47;1.38;;;14.60;87.20;;;;;;10201586;28;20276;-68
2024/04/01 16:25:21;;;;;;;4.72;1.83;;;14.70;86.40;;;;;;10201322;28;20292;-68
2024/04/01 16:30:31;;;;;;;2.20;1.20;;;14.90;87.00;;;;;;10204226;28;20210;-67
2024/04/01 16:35:33;;;;;;;2.20;1.30;;;15.20;86.30;;;;;;10203341;28;20230;-68
2024/04/01 16:40:36;;;;;;;2.55;1.30;;;15.40;86.10;;;;;;10201761;28;20586;-68
2024/04/01 16:45:41;;;;;;;1.60;1.00;;;15.50;84.80;;;;;;10201221;28;20304;-68
2024/04/01 16:50:48;;;;;;;1.10;0.82;;;15.60;84.00;;;;;;10202160;28;20238;-67
2024/04/01 16:55:51;;;;;;;2.47;1.30;;;15.60;83.30;;;;;;10200975;28;21475;-69
2024/04/01 17:00:55;;;;;;;3.80;1.00;;;15.40;82.80;;;;;;10199926;28;20288;-65
2024/04/01 17:05:59;;;;;;;3.65;1.15;;;15.20;82.30;;;;;;10199090;28;20704;-67
2024/04/01 17:11:02;;;;;;;1.58;1.02;;;15.10;83.70;;;;;;10200976;28;20834;-68
2024/04/01 17:16:06;;;;;;;1.98;1.00;;;15.00;82.90;;;;;;10202128;28;20285;-68
2024/04/01 17:21:09;;;;;;;2.33;1.60;;;14.80;82.50;;;;;;10201774;28;20284;-68
2024/04/01 17:26:12;;;;;;;4.03;1.60;;;14.70;84.40;;;;;;10201813;28;20234;-68
2024/04/01 17:31:17;;;;;;;2.03;1.25;;;14.60;84.70;;;;;;10200581;28;20218;-68
2024/04/01 17:36:20;;;;;;;2.80;2.08;;;14.50;85.20;;;;;;10199953;28;20237;-67
2024/04/01 17:41:23;;;;;;;2.70;2.15;;;14.50;85.60;;;;;;10198335;28;20572;-67
2024/04/01 17:46:27;;;;;;;2.22;1.77;;;14.40;85.90;;;;;;10198509;28;20230;-68
2024/04/01 17:51:30;;;;;;;3.20;1.85;;;14.30;86.00;;;;;;10199181;28;20258;-68
2024/04/01 17:56:33;;;;;;;2.80;1.70;;;14.20;86.30;;;;;;10198549;28;20238;-68
2024/04/01 18:01:37;;;;;;;3.33;1.80;;;14.20;86.50;;;;;;10200493;28;20751;-67
2024/04/01 18:06:40;;;;;;;3.65;2.22;;;14.10;86.70;;;;;;10196872;28;20230;-65
2024/04/01 18:11:43;;;;;;;2.67;2.15;;;14.00;86.80;;;;;;10195628;28;20551;-66
2024/04/01 18:16:48;;;;;;;4.03;2.03;;;13.90;86.80;;;;;;10194373;28;20504;-63
2024/04/01 18:21:51;;;;;;;9.07;3.42;;;13.90;87.00;;;;;;10199642;28;20264;-65
2024/04/01 18:26:54;;;;;;;5.93;2.63;;;13.80;87.10;;;;;;10190801;28;20615;-64
2024/04/01 18:31:59;;;;;;;4.53;2.67;;;13.70;87.20;;;;;;10192840;28;20597;-63
2024/04/01 18:37:05;;;;;;;5.63;2.60;;;13.70;87.30;;;;;;10194424;28;20280;-63
2024/04/01 18:42:09;;;;;;;4.55;2.30;;;13.60;87.40;;;;;;10194158;28;20218;-63
2024/04/01 18:47:14;;;;;;;4.57;3.05;;;13.60;87.50;;;;;;10195950;28;20234;-63
2024/04/01 18:52:21;;;;;;;5.25;2.80;;;13.50;87.40;;;;;;10195012;28;20214;-62
2024/04/01 18:57:24;;;;;;;4.15;2.13;;;13.50;87.80;;;;;;10194140;28;20241;-63
2024/04/01 19:02:28;;;;;;;3.10;1.92;;;13.50;88.10;;;;;;10192882;28;20636;-63
2024/04/01 19:07:31;;;;;;;3.80;2.08;;;13.40;88.00;;;;;;10191538;28;20218;-63
2024/04/01 19:12:35;;;;;;;3.05;1.80;;;13.40;87.90;;;;;;10192601;28;20623;-61
2024/04/01 19:17:39;;;;;;;2.90;1.50;;;13.40;88.00;;;;;;10193297;28;20253;-62
2024/04/01 19:22:42;;;;;;;4.25;1.90;;;13.40;87.90;;;;;;10190818;28;20793;-65
2024/04/01 19:27:44;;;;;;;2.90;1.60;;;13.30;88.10;;;;;;10189836;28;20230;-65
2024/04/01 19:32:48;;;;;;;1.70;1.60;;;13.30;88.30;;;;;;10191069;28;20816;-65
2024/04/01 19:37:52;;;;;;;2.47;1.65;;;13.30;88.10;;;;;;10192220;28;20230;-66
2024/04/01 19:42:57;;;;;;;3.10;1.50;;;13.30;88.40;;;;;;10208323;28;20218;-65
2024/04/01 19:48:01;;;;;;;3.33;2.15;;;13.20;89.40;;;;;;10189171;28;20230;-64
2024/04/01 19:53:14;;;;;;;2.88;1.73;;;13.20;89.40;;;;;;10193188;28;21384;-65
2024/04/01 19:58:17;;;;;;;3.70;2.00;;;13.10;89.60;;;;;;10185645;28;20626;-63
2024/04/01 20:03:21;;;;;;;3.75;1.77;;;13.10;89.80;;;;;;10183891;28;20222;-62
2024/04/01 20:08:26;;;;;;;4.20;1.95;;;13.00;89.50;;;;;;10183491;28;20643;-63
2024/04/01 20:13:30;;;;;;;2.22;1.67;;;13.00;89.60;;;;;;10182968;28;20240;-62
2024/04/01 20:18:34;;;;;;;3.10;1.90;;;13.00;89.60;;;;;;10181910;28;20269;-63
2024/04/01 20:23:36;;;;;;;3.40;1.88;;;12.90;89.10;;;;;;10181429;28;20214;-63
2024/04/01 20:28:43;;;;;;;2.58;1.60;;;12.90;89.80;;;;;;10183022;28;20309;-63
2024/04/01 20:33:50;;;;;;;3.80;1.85;;;12.90;90.00;;;;;;10182873;28;20724;-63
2024/04/01 20:38:53;;;;;;;3.65;1.45;;;12.80;89.50;;;;;;10183507;28;20869;-64
2024/04/01 20:43:58;;;;;;;3.22;1.80;;;12.80;89.00;;;;;;10187712;28;20772;-66
2024/04/01 20:49:02;;;;;;;2.13;1.52;;;12.70;89.40;;;;;;10185984;28;20218;-63
2024/04/01 20:54:05;;;;;;;3.28;1.63;;;12.70;89.20;;;;;;10184238;28;20881;-65
2024/04/01 20:59:13;;;;;;;3.72;1.65;;;12.60;89.40;;;;;;10184222;28;20312;-63
2024/04/01 21:04:18;;;;;;;2.63;1.55;;;12.60;89.40;;;;;;10187562;28;20206;-62
2024/04/01 21:09:22;;;;;;;3.53;1.70;;;12.60;89.80;;;;;;10188373;28;20760;-63
2024/04/01 21:14:25;;;;;;;3.95;1.70;;;12.60;89.00;;;;;;10189728;28;20234;-63
2024/04/01 21:19:29;;;;;;;4.20;1.40;;;12.50;89.80;;;;;;10195559;28;20658;-62
2024/04/01 21:24:31;;;;;;;2.17;1.60;;;12.40;89.10;;;;;;10194288;28;20285;-63
2024/04/01 21:29:34;;;;;;;3.03;1.80;;;12.40;88.90;;;;;;10189943;28;20851;-63
2024/04/01 21:34:38;;;;;;;3.72;1.58;;;12.40;89.60;;;;;;10191895;28;21410;-62
2024/04/01 21:39:41;;;;;;;2.83;1.60;;;12.40;89.20;;;;;;10194959;28;21081;-61
2024/04/01 21:44:44;;;;;;;3.58;2.00;;;12.30;89.40;;;;;;10184466;28;20230;-60
2024/04/01 21:49:48;;;;;;;2.88;1.63;;;12.30;89.10;;;;;;10197545;28;20218;-60
2024/04/01 21:54:51;;;;;;;2.17;1.40;;;12.30;89.60;;;;;;10198118;28;20296;-61
2024/04/01 21:59:54;;;;;;;2.05;1.30;;;12.20;89.10;;;;;;10199944;28;20699;-62
2024/04/01 22:04:58;;;;;;;1.92;1.25;;;12.20;88.90;;;;;;10199835;28;20276;-61
2024/04/01 22:10:00;;;;;;;2.38;1.58;;;12.20;88.90;;;;;;10198077;28;20272;-61
2024/04/01 22:15:04;;;;;;;2.40;1.35;;;12.10;89.60;;;;;;10194231;28;20242;-62
2024/04/01 22:20:09;;;;;;;1.23;1.13;;;12.10;88.70;;;;;;10196067;28;20217;-61
2024/04/01 22:25:11;;;;;;;2.83;1.20;;;12.00;88.40;;;;;;10191883;28;20257;-61
2024/04/01 22:30:14;;;;;;;2.10;1.40;;;12.00;88.90;;;;;;10194777;28;20297;-62
2024/04/01 22:35:18;;;;;;;1.90;1.00;;;11.90;88.90;;;;;;10191393;28;20409;-61
2024/04/01 22:40:21;;;;;;;4.28;1.10;;;11.90;88.50;;;;;;10191897;28;20638;-61
2024/04/01 22:45:24;;;;;;;4.50;1.00;;;11.90;88.60;;;;;;10196516;28;20222;-59
2024/04/01 22:50:27;;;;;;;2.85;1.08;;;11.90;88.60;;;;;;10194349;28;20214;-60
2024/04/01 22:55:30;;;;;;;2.20;0.98;;;11.90;88.80;;;;;;10194658;28;20727;-60
2024/04/01 23:00:33;;;;;;;2.88;1.02;;;11.90;88.60;;;;;;10198053;28;20579;-62
2024/04/01 23:05:37;;;;;;;2.05;0.85;;;11.90;89.60;;;;;;10195947;28;20289;-61
2024/04/01 23:10:39;;;;;;;1.30;0.73;;;11.90;89.00;;;;;;10196691;28;20269;-62
2024/04/01 23:15:42;;;;;;;2.45;0.73;;;11.90;87.90;;;;;;10191096;28;21609;-63
2024/04/01 23:20:46;;;;;;;1.20;0.73;;;11.80;88.30;;;;;;10194528;28;20245;-61
2024/04/01 23:25:57;;;;;;;2.10;0.77;;;11.80;88.20;;;;;;10195576;28;20230;-60
2024/04/01 23:31:03;;;;;;;2.65;0.82;;;11.80;88.80;;;;;;10195264;28;20269;-60
2024/04/01 23:36:07;;;;;;;1.77;0.93;;;11.80;88.80;;;;;;10195101;28;20242;-61
2024/04/01 23:41:10;;;;;;;2.88;1.08;;;11.70;88.70;;;;;;10195771;28;20214;-62
2024/04/01 23:46:14;;;;;;;2.00;0.85;;;11.70;88.90;;;;;;10195891;28;20910;-61
2024/04/01 23:51:19;;;;;;;1.65;0.70;;;11.70;88.90;;;;;;10193262;28;20678;-61
2024/04/01 23:56:21;;;;;;;2.35;1.02;;;11.70;89.20;;;;;;10192815;28;20300;-60
